sensor_id;sensor_type;location;lat;lon;timestamp;P1;durP1;ratioP1;P2;durP2;ratioP2
50671;SDS011;46021;55.882;37.654;2022-08-01T00:01:11;10.77;;;5.80;;
50671;SDS011;46021;55.882;37.654;2022-08-01T00:03:39;11.60;;;6.72;;
50671;SDS011;46021;55.882;37.654;2022-08-01T00:06:05;10.70;;;5.10;;
50671;SDS011;46021;55.882;37.654;2022-08-01T00:08:32;13.48;;;5.43;;
50671;SDS011;46021;55.882;37.654;2022-08-01T00:10:59;14.23;;;6.32;;
50671;SDS011;46021;55.882;37.654;2022-08-01T00:13:25;10.68;;;5.75;;
50671;SDS011;46021;55.882;37.654;2022-08-01T00:15:52;16.13;;;6.05;;
50671;SDS011;46021;55.882;37.654;2022-08-01T00:18:18;15.23;;;5.15;;
50671;SDS011;46021;55.882;37.654;2022-08-01T00:20:45;11.48;;;5.43;;
50671;SDS011;46021;55.882;37.654;2022-08-01T00:23:12;11.52;;;5.20;;
50671;SDS011;46021;55.882;37.654;2022-08-01T00:25:38;14.25;;;5.65;;
50671;SDS011;46021;55.882;37.654;2022-08-01T00:28:05;16.17;;;6.22;;
50671;SDS011;46021;55.882;37.654;2022-08-01T00:30:33;10.38;;;5.75;;
50671;SDS011;46021;55.882;37.654;2022-08-01T00:33:00;14.40;;;5.88;;
50671;SDS011;46021;55.882;37.654;2022-08-01T00:35:27;13.15;;;5.10;;
50671;SDS011;46021;55.882;37.654;2022-08-01T00:37:54;10.90;;;4.90;;
50671;SDS011;46021;55.882;37.654;2022-08-01T00:40:21;8.25;;;4.85;;
50671;SDS011;46021;55.882;37.654;2022-08-01T00:42:47;19.92;;;10.60;;
50671;SDS011;46021;55.882;37.654;2022-08-01T00:45:14;13.57;;;6.45;;
50671;SDS011;46021;55.882;37.654;2022-08-01T00:47:41;11.10;;;6.07;;
50671;SDS011;46021;55.882;37.654;2022-08-01T00:50:08;12.98;;;5.60;;
50671;SDS011;46021;55.882;37.654;2022-08-01T00:52:35;10.52;;;5.38;;
50671;SDS011;46021;55.882;37.654;2022-08-01T00:55:04;14.18;;;5.53;;
50671;SDS011;46021;55.882;37.654;2022-08-01T00:57:30;11.00;;;5.07;;
50671;SDS011;46021;55.882;37.654;2022-08-01T00:59:57;12.65;;;5.72;;
50671;SDS011;46021;55.882;37.654;2022-08-01T01:02:24;12.43;;;5.78;;
50671;SDS011;46021;55.882;37.654;2022-08-01T01:04:50;9.93;;;5.13;;
50671;SDS011;46021;55.882;37.654;2022-08-01T01:07:19;12.18;;;5.25;;
50671;SDS011;46021;55.882;37.654;2022-08-01T01:09:52;12.85;;;5.25;;
50671;SDS011;46021;55.882;37.654;2022-08-01T01:12:29;16.50;;;5.78;;
50671;SDS011;46021;55.882;37.654;2022-08-01T01:15:02;9.32;;;4.53;;
50671;SDS011;46021;55.882;37.654;2022-08-01T01:17:36;10.07;;;4.88;;
50671;SDS011;46021;55.882;37.654;2022-08-01T01:20:06;13.43;;;5.03;;
50671;SDS011;46021;55.882;37.654;2022-08-01T01:22:42;11.90;;;5.15;;
50671;SDS011;46021;55.882;37.654;2022-08-01T01:25:32;13.05;;;4.97;;
50671;SDS011;46021;55.882;37.654;2022-08-01T01:28:14;16.20;;;4.13;;
50671;SDS011;46021;55.882;37.654;2022-08-01T01:30:49;12.65;;;5.65;;
50671;SDS011;46021;55.882;37.654;2022-08-01T01:33:17;10.32;;;4.88;;
50671;SDS011;46021;55.882;37.654;2022-08-01T01:35:48;10.77;;;5.72;;
50671;SDS011;46021;55.882;37.654;2022-08-01T01:38:22;18.52;;;5.15;;
50671;SDS011;46021;55.882;37.654;2022-08-01T01:40:54;14.35;;;5.45;;
50671;SDS011;46021;55.882;37.654;2022-08-01T01:43:22;12.68;;;5.50;;
50671;SDS011;46021;55.882;37.654;2022-08-01T01:45:51;9.45;;;5.15;;
50671;SDS011;46021;55.882;37.654;2022-08-01T01:48:19;9.02;;;5.43;;
50671;SDS011;46021;55.882;37.654;2022-08-01T01:50:48;9.77;;;5.28;;
50671;SDS011;46021;55.882;37.654;2022-08-01T01:53:17;10.90;;;5.30;;
50671;SDS011;46021;55.882;37.654;2022-08-01T01:55:46;13.20;;;5.13;;
50671;SDS011;46021;55.882;37.654;2022-08-01T01:58:16;12.02;;;5.35;;
50671;SDS011;46021;55.882;37.654;2022-08-01T02:00:45;13.70;;;5.15;;
50671;SDS011;46021;55.882;37.654;2022-08-01T02:03:14;12.50;;;4.95;;
50671;SDS011;46021;55.882;37.654;2022-08-01T02:05:42;7.95;;;4.60;;
50671;SDS011;46021;55.882;37.654;2022-08-01T02:08:09;13.80;;;4.75;;
50671;SDS011;46021;55.882;37.654;2022-08-01T02:10:38;8.55;;;4.15;;
50671;SDS011;46021;55.882;37.654;2022-08-01T02:13:06;9.60;;;4.65;;
50671;SDS011;46021;55.882;37.654;2022-08-01T02:15:33;10.20;;;4.70;;
50671;SDS011;46021;55.882;37.654;2022-08-01T02:18:03;11.65;;;5.00;;
50671;SDS011;46021;55.882;37.654;2022-08-01T02:20:34;7.90;;;5.10;;
50671;SDS011;46021;55.882;37.654;2022-08-01T02:23:04;10.82;;;4.88;;
50671;SDS011;46021;55.882;37.654;2022-08-01T02:25:34;7.47;;;4.38;;
50671;SDS011;46021;55.882;37.654;2022-08-01T02:28:05;9.85;;;4.80;;
50671;SDS011;46021;55.882;37.654;2022-08-01T02:30:34;6.88;;;4.15;;
50671;SDS011;46021;55.882;37.654;2022-08-01T02:33:03;8.93;;;5.00;;
50671;SDS011;46021;55.882;37.654;2022-08-01T02:35:32;12.27;;;4.63;;
50671;SDS011;46021;55.882;37.654;2022-08-01T02:38:04;11.93;;;4.97;;
50671;SDS011;46021;55.882;37.654;2022-08-01T02:40:32;10.88;;;4.95;;
50671;SDS011;46021;55.882;37.654;2022-08-01T02:43:03;8.95;;;4.32;;
50671;SDS011;46021;55.882;37.654;2022-08-01T02:45:31;6.93;;;3.90;;
50671;SDS011;46021;55.882;37.654;2022-08-01T02:48:03;11.20;;;4.93;;
50671;SDS011;46021;55.882;37.654;2022-08-01T02:50:34;15.50;;;4.40;;
50671;SDS011;46021;55.882;37.654;2022-08-01T02:53:02;8.90;;;4.85;;
50671;SDS011;46021;55.882;37.654;2022-08-01T02:55:32;10.00;;;4.22;;
50671;SDS011;46021;55.882;37.654;2022-08-01T02:58:00;7.95;;;3.90;;
50671;SDS011;46021;55.882;37.654;2022-08-01T03:00:28;11.73;;;4.15;;
50671;SDS011;46021;55.882;37.654;2022-08-01T03:05:24;24.13;;;13.30;;
50671;SDS011;46021;55.882;37.654;2022-08-01T03:07:54;11.80;;;7.10;;
50671;SDS011;46021;55.882;37.654;2022-08-01T03:10:22;10.25;;;4.47;;
50671;SDS011;46021;55.882;37.654;2022-08-01T03:12:50;9.68;;;4.22;;
50671;SDS011;46021;55.882;37.654;2022-08-01T03:15:17;17.35;;;4.72;;
50671;SDS011;46021;55.882;37.654;2022-08-01T03:17:45;7.82;;;4.03;;
50671;SDS011;46021;55.882;37.654;2022-08-01T03:20:15;10.10;;;3.70;;
50671;SDS011;46021;55.882;37.654;2022-08-01T03:22:44;10.48;;;3.80;;
50671;SDS011;46021;55.882;37.654;2022-08-01T03:25:13;6.28;;;3.35;;
50671;SDS011;46021;55.882;37.654;2022-08-01T03:27:42;6.93;;;3.60;;
50671;SDS011;46021;55.882;37.654;2022-08-01T03:30:12;10.20;;;3.58;;
50671;SDS011;46021;55.882;37.654;2022-08-01T03:32:40;5.63;;;3.20;;
50671;SDS011;46021;55.882;37.654;2022-08-01T03:35:07;7.70;;;3.90;;
50671;SDS011;46021;55.882;37.654;2022-08-01T03:37:35;5.47;;;3.30;;
50671;SDS011;46021;55.882;37.654;2022-08-01T03:40:07;15.63;;;5.38;;
50671;SDS011;46021;55.882;37.654;2022-08-01T03:42:39;11.25;;;5.07;;
50671;SDS011;46021;55.882;37.654;2022-08-01T03:45:11;10.63;;;4.65;;
50671;SDS011;46021;55.882;37.654;2022-08-01T03:47:44;8.55;;;5.35;;
50671;SDS011;46021;55.882;37.654;2022-08-01T03:50:15;13.68;;;5.53;;
50671;SDS011;46021;55.882;37.654;2022-08-01T03:52:45;10.13;;;3.75;;
50671;SDS011;46021;55.882;37.654;2022-08-01T03:55:14;7.40;;;5.25;;
50671;SDS011;46021;55.882;37.654;2022-08-01T03:57:42;7.18;;;3.38;;
50671;SDS011;46021;55.882;37.654;2022-08-01T04:00:11;5.82;;;3.40;;
50671;SDS011;46021;55.882;37.654;2022-08-01T04:02:38;4.45;;;2.50;;
50671;SDS011;46021;55.882;37.654;2022-08-01T04:05:05;7.43;;;2.95;;
50671;SDS011;46021;55.882;37.654;2022-08-01T04:07:33;12.13;;;3.72;;
50671;SDS011;46021;55.882;37.654;2022-08-01T04:10:01;10.95;;;3.83;;
50671;SDS011;46021;55.882;37.654;2022-08-01T04:12:29;4.68;;;2.35;;
50671;SDS011;46021;55.882;37.654;2022-08-01T04:14:56;7.55;;;2.78;;
50671;SDS011;46021;55.882;37.654;2022-08-01T04:17:22;7.40;;;2.88;;
50671;SDS011;46021;55.882;37.654;2022-08-01T04:19:49;6.10;;;3.58;;
50671;SDS011;46021;55.882;37.654;2022-08-01T04:22:15;12.07;;;3.13;;
50671;SDS011;46021;55.882;37.654;2022-08-01T04:24:44;27.75;;;4.70;;
50671;SDS011;46021;55.882;37.654;2022-08-01T04:27:15;12.18;;;3.15;;
50671;SDS011;46021;55.882;37.654;2022-08-01T04:29:47;4.88;;;2.42;;
50671;SDS011;46021;55.882;37.654;2022-08-01T04:32:16;5.43;;;2.67;;
50671;SDS011;46021;55.882;37.654;2022-08-01T04:34:46;5.25;;;2.50;;
50671;SDS011;46021;55.882;37.654;2022-08-01T04:37:15;11.20;;;2.90;;
50671;SDS011;46021;55.882;37.654;2022-08-01T04:39:44;5.00;;;2.97;;
50671;SDS011;46021;55.882;37.654;2022-08-01T04:42:13;4.95;;;2.40;;
50671;SDS011;46021;55.882;37.654;2022-08-01T04:44:41;6.20;;;2.70;;
50671;SDS011;46021;55.882;37.654;2022-08-01T04:47:08;6.43;;;2.95;;
50671;SDS011;46021;55.882;37.654;2022-08-01T04:49:36;10.57;;;2.97;;
50671;SDS011;46021;55.882;37.654;2022-08-01T04:52:04;5.57;;;2.47;;
50671;SDS011;46021;55.882;37.654;2022-08-01T04:54:33;4.63;;;2.50;;
50671;SDS011;46021;55.882;37.654;2022-08-01T04:57:02;8.07;;;2.28;;
50671;SDS011;46021;55.882;37.654;2022-08-01T04:59:29;6.57;;;2.75;;
50671;SDS011;46021;55.882;37.654;2022-08-01T05:02:07;8.40;;;2.90;;
50671;SDS011;46021;55.882;37.654;2022-08-01T05:04:34;5.60;;;2.33;;
50671;SDS011;46021;55.882;37.654;2022-08-01T05:07:02;4.93;;;2.30;;
50671;SDS011;46021;55.882;37.654;2022-08-01T05:09:29;8.18;;;2.10;;
50671;SDS011;46021;55.882;37.654;2022-08-01T05:11:56;4.47;;;2.30;;
50671;SDS011;46021;55.882;37.654;2022-08-01T05:14:24;5.80;;;2.10;;
50671;SDS011;46021;55.882;37.654;2022-08-01T05:16:51;5.90;;;2.25;;
50671;SDS011;46021;55.882;37.654;2022-08-01T05:19:17;6.88;;;2.40;;
50671;SDS011;46021;55.882;37.654;2022-08-01T05:21:45;8.43;;;2.38;;
50671;SDS011;46021;55.882;37.654;2022-08-01T05:24:12;9.65;;;5.40;;
50671;SDS011;46021;55.882;37.654;2022-08-01T05:26:38;9.27;;;2.65;;
50671;SDS011;46021;55.882;37.654;2022-08-01T05:31:32;4.65;;;2.33;;
50671;SDS011;46021;55.882;37.654;2022-08-01T05:33:59;4.53;;;2.33;;
50671;SDS011;46021;55.882;37.654;2022-08-01T05:38:52;9.07;;;2.53;;
50671;SDS011;46021;55.882;37.654;2022-08-01T05:41:19;7.15;;;2.53;;
50671;SDS011;46021;55.882;37.654;2022-08-01T05:43:46;4.57;;;2.00;;
50671;SDS011;46021;55.882;37.654;2022-08-01T05:46:13;4.70;;;2.38;;
50671;SDS011;46021;55.882;37.654;2022-08-01T05:51:05;5.63;;;2.90;;
50671;SDS011;46021;55.882;37.654;2022-08-01T05:55:59;3.67;;;2.30;;
50671;SDS011;46021;55.882;37.654;2022-08-01T05:58:27;7.88;;;2.33;;
50671;SDS011;46021;55.882;37.654;2022-08-01T06:00:53;10.57;;;2.28;;
50671;SDS011;46021;55.882;37.654;2022-08-01T06:03:20;4.93;;;2.03;;
50671;SDS011;46021;55.882;37.654;2022-08-01T06:05:47;5.85;;;2.00;;
50671;SDS011;46021;55.882;37.654;2022-08-01T06:08:13;4.32;;;1.85;;
50671;SDS011;46021;55.882;37.654;2022-08-01T06:10:40;3.35;;;1.63;;
50671;SDS011;46021;55.882;37.654;2022-08-01T06:13:06;7.70;;;1.63;;
50671;SDS011;46021;55.882;37.654;2022-08-01T06:15:33;3.38;;;1.73;;
50671;SDS011;46021;55.882;37.654;2022-08-01T06:18:00;6.47;;;1.70;;
50671;SDS011;46021;55.882;37.654;2022-08-01T06:22:53;3.00;;;1.50;;
50671;SDS011;46021;55.882;37.654;2022-08-01T06:25:20;4.57;;;1.73;;
50671;SDS011;46021;55.882;37.654;2022-08-01T06:27:47;3.00;;;1.73;;
50671;SDS011;46021;55.882;37.654;2022-08-01T06:30:13;5.38;;;2.33;;
50671;SDS011;46021;55.882;37.654;2022-08-01T06:35:07;4.63;;;1.67;;
50671;SDS011;46021;55.882;37.654;2022-08-01T06:37:35;5.55;;;1.95;;
50671;SDS011;46021;55.882;37.654;2022-08-01T06:40:02;8.45;;;2.17;;
50671;SDS011;46021;55.882;37.654;2022-08-01T06:42:31;5.25;;;2.13;;
50671;SDS011;46021;55.882;37.654;2022-08-01T06:45:01;5.47;;;2.10;;
50671;SDS011;46021;55.882;37.654;2022-08-01T06:47:29;7.00;;;2.72;;
50671;SDS011;46021;55.882;37.654;2022-08-01T06:49:56;9.88;;;2.42;;
50671;SDS011;46021;55.882;37.654;2022-08-01T06:52:23;4.05;;;1.90;;
50671;SDS011;46021;55.882;37.654;2022-08-01T06:54:50;4.00;;;1.63;;
50671;SDS011;46021;55.882;37.654;2022-08-01T06:57:16;7.43;;;2.05;;
50671;SDS011;46021;55.882;37.654;2022-08-01T06:59:43;5.97;;;2.17;;
50671;SDS011;46021;55.882;37.654;2022-08-01T07:02:10;5.05;;;1.70;;
50671;SDS011;46021;55.882;37.654;2022-08-01T07:04:36;4.57;;;2.03;;
50671;SDS011;46021;55.882;37.654;2022-08-01T07:07:04;9.20;;;1.92;;
50671;SDS011;46021;55.882;37.654;2022-08-01T07:11:57;7.95;;;2.63;;
50671;SDS011;46021;55.882;37.654;2022-08-01T07:14:23;5.87;;;3.13;;
50671;SDS011;46021;55.882;37.654;2022-08-01T07:16:50;16.10;;;5.37;;
50671;SDS011;46021;55.882;37.654;2022-08-01T07:19:18;8.73;;;4.45;;
50671;SDS011;46021;55.882;37.654;2022-08-01T07:21:45;13.27;;;3.65;;
50671;SDS011;46021;55.882;37.654;2022-08-01T07:24:13;29.50;;;5.60;;
50671;SDS011;46021;55.882;37.654;2022-08-01T07:26:41;6.95;;;2.75;;
50671;SDS011;46021;55.882;37.654;2022-08-01T07:29:09;12.25;;;4.32;;
50671;SDS011;46021;55.882;37.654;2022-08-01T07:31:36;11.53;;;5.23;;
50671;SDS011;46021;55.882;37.654;2022-08-01T07:34:02;6.53;;;2.37;;
50671;SDS011;46021;55.882;37.654;2022-08-01T07:36:29;3.92;;;2.30;;
50671;SDS011;46021;55.882;37.654;2022-08-01T07:38:56;4.00;;;2.13;;
50671;SDS011;46021;55.882;37.654;2022-08-01T07:41:23;7.53;;;2.40;;
50671;SDS011;46021;55.882;37.654;2022-08-01T07:43:49;5.72;;;1.73;;
50671;SDS011;46021;55.882;37.654;2022-08-01T07:46:16;2.67;;;1.50;;
50671;SDS011;46021;55.882;37.654;2022-08-01T07:48:43;4.03;;;1.98;;
50671;SDS011;46021;55.882;37.654;2022-08-01T07:51:10;3.65;;;1.90;;
50671;SDS011;46021;55.882;37.654;2022-08-01T07:56:03;3.72;;;1.70;;
50671;SDS011;46021;55.882;37.654;2022-08-01T07:58:32;5.10;;;1.90;;
50671;SDS011;46021;55.882;37.654;2022-08-01T08:03:25;6.85;;;2.00;;
50671;SDS011;46021;55.882;37.654;2022-08-01T08:05:51;5.50;;;2.00;;
50671;SDS011;46021;55.882;37.654;2022-08-01T08:08:18;3.20;;;1.80;;
50671;SDS011;46021;55.882;37.654;2022-08-01T08:10:45;5.53;;;1.80;;
50671;SDS011;46021;55.882;37.654;2022-08-01T08:13:12;3.30;;;1.83;;
50671;SDS011;46021;55.882;37.654;2022-08-01T08:15:39;5.47;;;1.70;;
50671;SDS011;46021;55.882;37.654;2022-08-01T08:18:05;3.13;;;1.63;;
50671;SDS011;46021;55.882;37.654;2022-08-01T08:20:32;3.13;;;1.90;;
50671;SDS011;46021;55.882;37.654;2022-08-01T08:22:59;3.47;;;2.08;;
50671;SDS011;46021;55.882;37.654;2022-08-01T08:25:25;4.40;;;1.73;;
50671;SDS011;46021;55.882;37.654;2022-08-01T08:27:52;5.47;;;2.67;;
50671;SDS011;46021;55.882;37.654;2022-08-01T08:30:19;8.88;;;2.65;;
50671;SDS011;46021;55.882;37.654;2022-08-01T08:32:46;3.08;;;2.15;;
50671;SDS011;46021;55.882;37.654;2022-08-01T08:35:13;8.68;;;1.73;;
50671;SDS011;46021;55.882;37.654;2022-08-01T08:37:41;5.03;;;1.95;;
50671;SDS011;46021;55.882;37.654;2022-08-01T08:40:09;4.00;;;2.10;;
50671;SDS011;46021;55.882;37.654;2022-08-01T08:42:36;3.55;;;2.20;;
50671;SDS011;46021;55.882;37.654;2022-08-01T08:45:06;7.45;;;2.10;;
50671;SDS011;46021;55.882;37.654;2022-08-01T08:47:33;22.23;;;2.10;;
50671;SDS011;46021;55.882;37.654;2022-08-01T08:50:02;12.90;;;2.30;;
50671;SDS011;46021;55.882;37.654;2022-08-01T08:52:31;3.78;;;1.92;;
50671;SDS011;46021;55.882;37.654;2022-08-01T08:55:04;2.92;;;1.77;;
50671;SDS011;46021;55.882;37.654;2022-08-01T08:57:31;3.55;;;1.70;;
50671;SDS011;46021;55.882;37.654;2022-08-01T08:59:59;3.92;;;2.10;;
50671;SDS011;46021;55.882;37.654;2022-08-01T09:02:26;6.05;;;1.80;;
50671;SDS011;46021;55.882;37.654;2022-08-01T09:04:53;4.40;;;2.35;;
50671;SDS011;46021;55.882;37.654;2022-08-01T09:07:21;5.43;;;2.10;;
50671;SDS011;46021;55.882;37.654;2022-08-01T09:09:50;6.57;;;3.42;;
50671;SDS011;46021;55.882;37.654;2022-08-01T09:12:17;6.20;;;3.08;;
50671;SDS011;46021;55.882;37.654;2022-08-01T09:14:45;12.00;;;4.55;;
50671;SDS011;46021;55.882;37.654;2022-08-01T09:17:13;6.25;;;1.80;;
50671;SDS011;46021;55.882;37.654;2022-08-01T09:19:40;3.42;;;1.80;;
50671;SDS011;46021;55.882;37.654;2022-08-01T09:22:09;3.35;;;1.40;;
50671;SDS011;46021;55.882;37.654;2022-08-01T09:24:38;3.53;;;2.00;;
50671;SDS011;46021;55.882;37.654;2022-08-01T09:27:15;2.78;;;1.30;;
50671;SDS011;46021;55.882;37.654;2022-08-01T09:29:45;4.93;;;1.50;;
50671;SDS011;46021;55.882;37.654;2022-08-01T09:32:11;5.70;;;1.55;;
50671;SDS011;46021;55.882;37.654;2022-08-01T09:34:38;4.78;;;1.60;;
50671;SDS011;46021;55.882;37.654;2022-08-01T09:37:05;5.20;;;2.05;;
50671;SDS011;46021;55.882;37.654;2022-08-01T09:39:33;2.45;;;1.20;;
50671;SDS011;46021;55.882;37.654;2022-08-01T09:42:17;2.55;;;1.63;;
50671;SDS011;46021;55.882;37.654;2022-08-01T09:44:45;5.25;;;1.50;;
50671;SDS011;46021;55.882;37.654;2022-08-01T09:47:13;2.75;;;1.38;;
50671;SDS011;46021;55.882;37.654;2022-08-01T09:49:40;2.78;;;1.42;;
50671;SDS011;46021;55.882;37.654;2022-08-01T09:52:12;4.70;;;2.58;;
50671;SDS011;46021;55.882;37.654;2022-08-01T09:54:40;9.63;;;1.90;;
50671;SDS011;46021;55.882;37.654;2022-08-01T09:57:13;3.13;;;1.77;;
50671;SDS011;46021;55.882;37.654;2022-08-01T09:59:41;2.85;;;1.30;;
50671;SDS011;46021;55.882;37.654;2022-08-01T10:02:09;5.05;;;1.63;;
50671;SDS011;46021;55.882;37.654;2022-08-01T10:04:48;7.32;;;1.30;;
50671;SDS011;46021;55.882;37.654;2022-08-01T10:07:15;3.05;;;1.55;;
50671;SDS011;46021;55.882;37.654;2022-08-01T10:09:42;3.42;;;1.58;;
50671;SDS011;46021;55.882;37.654;2022-08-01T10:12:14;5.00;;;1.83;;
50671;SDS011;46021;55.882;37.654;2022-08-01T10:14:42;2.90;;;1.50;;
50671;SDS011;46021;55.882;37.654;2022-08-01T10:17:11;5.22;;;1.50;;
50671;SDS011;46021;55.882;37.654;2022-08-01T10:19:39;4.97;;;1.50;;
50671;SDS011;46021;55.882;37.654;2022-08-01T10:22:08;3.97;;;1.23;;
50671;SDS011;46021;55.882;37.654;2022-08-01T10:24:37;5.50;;;1.70;;
50671;SDS011;46021;55.882;37.654;2022-08-01T10:27:05;4.43;;;1.60;;
50671;SDS011;46021;55.882;37.654;2022-08-01T10:29:36;6.47;;;1.55;;
50671;SDS011;46021;55.882;37.654;2022-08-01T10:32:06;2.45;;;1.63;;
50671;SDS011;46021;55.882;37.654;2022-08-01T10:34:36;5.00;;;2.50;;
50671;SDS011;46021;55.882;37.654;2022-08-01T10:37:03;3.83;;;2.28;;
50671;SDS011;46021;55.882;37.654;2022-08-01T10:39:31;3.15;;;1.70;;
50671;SDS011;46021;55.882;37.654;2022-08-01T10:41:58;3.17;;;1.50;;
50671;SDS011;46021;55.882;37.654;2022-08-01T10:44:25;5.68;;;1.92;;
50671;SDS011;46021;55.882;37.654;2022-08-01T10:47:03;6.55;;;1.83;;
50671;SDS011;46021;55.882;37.654;2022-08-01T10:49:36;8.43;;;1.95;;
50671;SDS011;46021;55.882;37.654;2022-08-01T10:52:13;4.55;;;1.92;;
50671;SDS011;46021;55.882;37.654;2022-08-01T10:54:40;4.05;;;1.95;;
50671;SDS011;46021;55.882;37.654;2022-08-01T10:57:07;4.70;;;1.80;;
50671;SDS011;46021;55.882;37.654;2022-08-01T10:59:33;3.40;;;2.15;;
50671;SDS011;46021;55.882;37.654;2022-08-01T11:02:06;6.05;;;1.90;;
50671;SDS011;46021;55.882;37.654;2022-08-01T11:04:34;3.15;;;1.65;;
50671;SDS011;46021;55.882;37.654;2022-08-01T11:07:11;3.22;;;1.70;;
50671;SDS011;46021;55.882;37.654;2022-08-01T11:09:44;3.10;;;1.67;;
50671;SDS011;46021;55.882;37.654;2022-08-01T11:12:13;3.88;;;2.00;;
50671;SDS011;46021;55.882;37.654;2022-08-01T11:17:54;8.05;;;1.92;;
50671;SDS011;46021;55.882;37.654;2022-08-01T11:20:22;3.08;;;1.67;;
50671;SDS011;46021;55.882;37.654;2022-08-01T11:31:26;6.03;;;3.83;;
50671;SDS011;46021;55.882;37.654;2022-08-01T11:33:55;3.60;;;2.47;;
50671;SDS011;46021;55.882;37.654;2022-08-01T11:36:21;8.27;;;4.68;;
50671;SDS011;46021;55.882;37.654;2022-08-01T11:38:49;8.38;;;2.90;;
50671;SDS011;46021;55.882;37.654;2022-08-01T11:41:36;10.18;;;6.07;;
50671;SDS011;46021;55.882;37.654;2022-08-01T11:44:03;6.13;;;3.25;;
50671;SDS011;46021;55.882;37.654;2022-08-01T11:46:45;9.10;;;4.88;;
50671;SDS011;46021;55.882;37.654;2022-08-01T11:49:26;10.23;;;4.50;;
50671;SDS011;46021;55.882;37.654;2022-08-01T11:52:02;9.60;;;5.20;;
50671;SDS011;46021;55.882;37.654;2022-08-01T11:54:31;7.35;;;3.80;;
50671;SDS011;46021;55.882;37.654;2022-08-01T11:57:00;13.60;;;7.90;;
50671;SDS011;46021;55.882;37.654;2022-08-01T11:59:28;4.32;;;2.00;;
50671;SDS011;46021;55.882;37.654;2022-08-01T12:02:02;5.40;;;1.90;;
50671;SDS011;46021;55.882;37.654;2022-08-01T12:07:11;4.95;;;2.15;;
50671;SDS011;46021;55.882;37.654;2022-08-01T12:09:38;7.97;;;5.53;;
50671;SDS011;46021;55.882;37.654;2022-08-01T12:12:05;12.15;;;3.65;;
50671;SDS011;46021;55.882;37.654;2022-08-01T12:16:59;4.38;;;3.08;;
50671;SDS011;46021;55.882;37.654;2022-08-01T12:19:25;10.10;;;3.20;;
50671;SDS011;46021;55.882;37.654;2022-08-01T12:22:05;3.58;;;2.35;;
50671;SDS011;46021;55.882;37.654;2022-08-01T12:24:36;7.15;;;2.67;;
50671;SDS011;46021;55.882;37.654;2022-08-01T12:27:03;7.68;;;3.25;;
50671;SDS011;46021;55.882;37.654;2022-08-01T12:31:57;4.75;;;3.15;;
50671;SDS011;46021;55.882;37.654;2022-08-01T12:34:27;4.78;;;2.28;;
50671;SDS011;46021;55.882;37.654;2022-08-01T12:36:56;3.70;;;2.40;;
50671;SDS011;46021;55.882;37.654;2022-08-01T12:39:32;4.78;;;2.40;;
50671;SDS011;46021;55.882;37.654;2022-08-01T12:41:59;5.63;;;2.30;;
50671;SDS011;46021;55.882;37.654;2022-08-01T12:44:26;3.25;;;1.95;;
50671;SDS011;46021;55.882;37.654;2022-08-01T12:46:55;9.43;;;2.47;;
50671;SDS011;46021;55.882;37.654;2022-08-01T12:49:23;5.63;;;2.10;;
50671;SDS011;46021;55.882;37.654;2022-08-01T12:51:50;4.43;;;2.63;;
50671;SDS011;46021;55.882;37.654;2022-08-01T12:56:43;4.45;;;1.77;;
50671;SDS011;46021;55.882;37.654;2022-08-01T12:59:20;3.67;;;1.65;;
50671;SDS011;46021;55.882;37.654;2022-08-01T13:01:50;2.90;;;1.70;;
50671;SDS011;46021;55.882;37.654;2022-08-01T13:04:18;9.57;;;2.25;;
50671;SDS011;46021;55.882;37.654;2022-08-01T13:09:13;3.38;;;2.00;;
50671;SDS011;46021;55.882;37.654;2022-08-01T13:11:40;3.95;;;2.30;;
50671;SDS011;46021;55.882;37.654;2022-08-01T13:14:09;4.43;;;1.98;;
50671;SDS011;46021;55.882;37.654;2022-08-01T13:16:45;7.10;;;2.30;;
50671;SDS011;46021;55.882;37.654;2022-08-01T13:19:12;4.32;;;2.85;;
50671;SDS011;46021;55.882;37.654;2022-08-01T13:21:39;5.70;;;2.20;;
50671;SDS011;46021;55.882;37.654;2022-08-01T13:24:22;3.50;;;2.05;;
50671;SDS011;46021;55.882;37.654;2022-08-01T13:26:51;3.60;;;2.13;;
50671;SDS011;46021;55.882;37.654;2022-08-01T13:29:23;3.70;;;2.30;;
50671;SDS011;46021;55.882;37.654;2022-08-01T13:31:55;7.15;;;3.95;;
50671;SDS011;46021;55.882;37.654;2022-08-01T13:34:29;6.90;;;3.63;;
50671;SDS011;46021;55.882;37.654;2022-08-01T13:36:56;5.35;;;2.10;;
50671;SDS011;46021;55.882;37.654;2022-08-01T13:39:22;3.80;;;2.50;;
50671;SDS011;46021;55.882;37.654;2022-08-01T13:42:09;15.00;;;7.88;;
50671;SDS011;46021;55.882;37.654;2022-08-01T13:44:37;7.15;;;4.75;;
50671;SDS011;46021;55.882;37.654;2022-08-01T13:47:04;7.43;;;2.40;;
50671;SDS011;46021;55.882;37.654;2022-08-01T13:49:32;8.05;;;5.25;;
50671;SDS011;46021;55.882;37.654;2022-08-01T13:51:59;8.55;;;3.13;;
50671;SDS011;46021;55.882;37.654;2022-08-01T13:56:53;9.27;;;3.53;;
50671;SDS011;46021;55.882;37.654;2022-08-01T13:59:19;10.63;;;6.95;;
50671;SDS011;46021;55.882;37.654;2022-08-01T14:01:47;3.45;;;1.80;;
50671;SDS011;46021;55.882;37.654;2022-08-01T14:04:14;7.63;;;2.47;;
50671;SDS011;46021;55.882;37.654;2022-08-01T14:06:41;4.63;;;2.88;;
50671;SDS011;46021;55.882;37.654;2022-08-01T14:09:08;5.72;;;2.13;;
50671;SDS011;46021;55.882;37.654;2022-08-01T14:11:35;5.88;;;2.08;;
50671;SDS011;46021;55.882;37.654;2022-08-01T14:14:02;9.43;;;2.80;;
50671;SDS011;46021;55.882;37.654;2022-08-01T14:16:28;16.02;;;2.47;;
50671;SDS011;46021;55.882;37.654;2022-08-01T14:18:56;8.15;;;3.13;;
50671;SDS011;46021;55.882;37.654;2022-08-01T14:21:23;6.80;;;3.85;;
50671;SDS011;46021;55.882;37.654;2022-08-01T14:23:49;7.30;;;3.40;;
50671;SDS011;46021;55.882;37.654;2022-08-01T14:26:16;8.60;;;2.50;;
50671;SDS011;46021;55.882;37.654;2022-08-01T14:28:42;9.30;;;3.15;;
50671;SDS011;46021;55.882;37.654;2022-08-01T14:31:09;4.20;;;2.38;;
50671;SDS011;46021;55.882;37.654;2022-08-01T14:33:35;4.53;;;2.53;;
50671;SDS011;46021;55.882;37.654;2022-08-01T14:36:03;5.10;;;2.65;;
50671;SDS011;46021;55.882;37.654;2022-08-01T14:38:30;5.63;;;2.67;;
50671;SDS011;46021;55.882;37.654;2022-08-01T14:40:57;3.80;;;2.22;;
50671;SDS011;46021;55.882;37.654;2022-08-01T14:43:24;3.75;;;2.33;;
50671;SDS011;46021;55.882;37.654;2022-08-01T14:45:51;4.43;;;2.10;;
50671;SDS011;46021;55.882;37.654;2022-08-01T14:48:19;6.50;;;2.08;;
50671;SDS011;46021;55.882;37.654;2022-08-01T14:50:46;3.97;;;2.50;;
50671;SDS011;46021;55.882;37.654;2022-08-01T14:53:14;3.22;;;1.83;;
50671;SDS011;46021;55.882;37.654;2022-08-01T14:55:40;5.47;;;2.25;;
50671;SDS011;46021;55.882;37.654;2022-08-01T14:58:07;6.90;;;2.57;;
50671;SDS011;46021;55.882;37.654;2022-08-01T15:00:34;6.53;;;2.20;;
50671;SDS011;46021;55.882;37.654;2022-08-01T15:03:00;4.00;;;2.22;;
50671;SDS011;46021;55.882;37.654;2022-08-01T15:05:27;4.77;;;2.20;;
50671;SDS011;46021;55.882;37.654;2022-08-01T15:07:54;4.05;;;2.40;;
50671;SDS011;46021;55.882;37.654;2022-08-01T15:10:21;6.60;;;2.47;;
50671;SDS011;46021;55.882;37.654;2022-08-01T15:12:48;5.60;;;2.97;;
50671;SDS011;46021;55.882;37.654;2022-08-01T15:15:14;3.78;;;2.10;;
50671;SDS011;46021;55.882;37.654;2022-08-01T15:17:41;3.33;;;2.13;;
50671;SDS011;46021;55.882;37.654;2022-08-01T15:20:08;3.73;;;1.80;;
50671;SDS011;46021;55.882;37.654;2022-08-01T15:22:35;10.43;;;2.80;;
50671;SDS011;46021;55.882;37.654;2022-08-01T15:25:01;9.05;;;2.80;;
50671;SDS011;46021;55.882;37.654;2022-08-01T15:27:29;6.72;;;1.92;;
50671;SDS011;46021;55.882;37.654;2022-08-01T15:29:56;3.72;;;2.17;;